createdAt,value
2019-03-15T00:01:12.599Z,16.62
2019-03-15T00:03:41.340Z,12.85
2019-03-15T00:06:10.164Z,21.00
2019-03-15T00:08:38.698Z,19.05
2019-03-15T00:11:07.338Z,10.10
2019-03-15T00:13:35.932Z,13.50
2019-03-15T00:16:08.043Z,19.55
2019-03-15T00:18:36.600Z,20.52
2019-03-15T00:21:08.481Z,30.02
2019-03-15T00:23:38.792Z,15.83
2019-03-15T00:26:07.710Z,24.67
2019-03-15T00:28:41.392Z,16.52
2019-03-15T00:33:42.424Z,22.55
2019-03-15T00:36:11.349Z,20.25
2019-03-15T00:38:41.484Z,21.23
2019-03-15T00:41:10.898Z,19.73
2019-03-15T00:43:39.719Z,17.65
2019-03-15T00:46:08.558Z,18.92
2019-03-15T00:48:37.545Z,19.77
2019-03-15T00:51:06.432Z,19.00
2019-03-15T00:53:35.160Z,22.75
2019-03-15T00:56:04.114Z,20.82
2019-03-15T00:58:32.990Z,22.17
2019-03-15T01:01:03.861Z,16.87
2019-03-15T01:03:35.292Z,21.25
2019-03-15T01:06:05.534Z,19.77
2019-03-15T01:08:36.215Z,26.85
2019-03-15T01:11:04.966Z,25.72
2019-03-15T01:13:33.520Z,24.98
2019-03-15T01:16:02.108Z,14.10
2019-03-15T01:18:31.423Z,24.45
2019-03-15T01:21:00.484Z,22.77
2019-03-15T01:23:30.421Z,21.30
2019-03-15T01:26:01.214Z,22.10
2019-03-15T01:28:29.959Z,20.00
2019-03-15T01:31:00.078Z,19.42
2019-03-15T01:33:30.214Z,23.55
2019-03-15T01:35:58.775Z,19.23
2019-03-15T01:38:29.118Z,30.23
2019-03-15T01:40:57.689Z,26.02
2019-03-15T01:43:26.605Z,19.40
2019-03-15T01:45:55.216Z,18.12
2019-03-15T01:48:25.456Z,23.55
2019-03-15T01:50:54.004Z,21.55
2019-03-15T01:53:24.244Z,21.23
2019-03-15T01:55:58.504Z,19.73
2019-03-15T01:58:29.276Z,23.02
2019-03-15T02:00:58.256Z,16.93
2019-03-15T02:03:28.583Z,27.17
2019-03-15T02:05:57.526Z,20.62
2019-03-15T02:08:26.698Z,22.17
2019-03-15T02:10:57.069Z,19.95
2019-03-15T02:13:27.211Z,22.17
2019-03-15T02:15:57.351Z,18.17
2019-03-15T02:18:26.490Z,26.73
2019-03-15T02:20:55.381Z,28.52
2019-03-15T02:23:23.959Z,25.52
2019-03-15T02:25:54.790Z,23.15
2019-03-15T02:28:23.734Z,18.87
2019-03-15T02:30:52.472Z,24.63
2019-03-15T02:33:21.629Z,21.52
2019-03-15T02:35:50.177Z,26.10
2019-03-15T02:38:18.771Z,21.10
2019-03-15T02:40:50.695Z,19.40
2019-03-15T02:43:20.668Z,21.42
2019-03-15T02:45:50.807Z,22.98
2019-03-15T02:48:19.434Z,21.87
2019-03-15T02:50:48.361Z,20.32
2019-03-15T02:53:16.957Z,26.37
2019-03-15T02:55:45.690Z,24.02
2019-03-15T02:58:15.645Z,22.07
2019-03-15T03:00:44.198Z,22.73
2019-03-15T03:03:12.766Z,15.53
2019-03-15T03:05:41.499Z,17.95
2019-03-15T03:08:14.138Z,21.77
2019-03-15T03:10:42.981Z,14.80
2019-03-15T03:13:11.551Z,21.15
2019-03-15T03:15:43.170Z,24.10
2019-03-15T03:18:11.891Z,20.20
2019-03-15T03:20:40.905Z,21.97
2019-03-15T03:23:11.761Z,22.95
2019-03-15T03:25:40.495Z,27.50
2019-03-15T03:28:09.068Z,24.80
2019-03-15T03:30:39.416Z,21.77
2019-03-15T03:33:08.345Z,19.23
2019-03-15T03:35:37.381Z,21.62
2019-03-15T03:38:08.156Z,18.00
2019-03-15T03:40:37.041Z,16.55
2019-03-15T03:43:06.055Z,19.05
2019-03-15T03:45:34.690Z,14.00
2019-03-15T03:48:03.266Z,22.73
2019-03-15T03:50:32.168Z,18.52
2019-03-15T03:53:03.177Z,25.92
2019-03-15T03:55:31.740Z,26.33
2019-03-15T03:58:02.611Z,24.52
2019-03-15T04:00:31.443Z,21.10
2019-03-15T04:03:00.185Z,29.82
2019-03-15T04:05:30.969Z,23.60
2019-03-15T04:07:59.534Z,20.85
2019-03-15T04:10:28.278Z,28.65
2019-03-15T04:12:56.829Z,21.82
2019-03-15T04:15:25.615Z,17.77
2019-03-15T04:17:54.262Z,25.62
2019-03-15T04:20:22.834Z,18.05
2019-03-15T04:22:55.486Z,20.57
2019-03-15T04:25:29.011Z,27.23
2019-03-15T04:27:57.561Z,32.50
2019-03-15T04:30:26.487Z,20.92
2019-03-15T04:32:55.041Z,17.95
2019-03-15T04:35:24.074Z,16.55
2019-03-15T04:37:52.769Z,21.50
2019-03-15T04:40:26.919Z,21.02
2019-03-15T04:42:57.027Z,15.10
2019-03-15T04:45:25.949Z,18.70
2019-03-15T04:47:54.490Z,23.38
2019-03-15T04:50:23.709Z,15.90
2019-03-15T04:52:54.022Z,18.75
2019-03-15T04:55:23.152Z,15.45
2019-03-15T04:57:52.122Z,19.57
2019-03-15T05:00:22.292Z,18.02
2019-03-15T05:02:50.838Z,22.13
2019-03-15T05:05:19.408Z,21.50
2019-03-15T05:07:50.051Z,19.92
2019-03-15T05:10:18.623Z,15.65
2019-03-15T05:12:48.989Z,21.57
2019-03-15T05:15:17.719Z,21.35
2019-03-15T05:17:46.285Z,19.35
2019-03-15T05:20:16.586Z,19.10
2019-03-15T05:22:45.180Z,22.20
2019-03-15T05:25:17.523Z,19.05
2019-03-15T05:27:46.483Z,22.67
2019-03-15T05:30:15.215Z,23.07
2019-03-15T05:32:43.759Z,24.23
2019-03-15T05:35:12.506Z,17.80
2019-03-15T05:37:41.688Z,21.62
2019-03-15T05:40:10.439Z,17.00
2019-03-15T05:42:40.671Z,16.23
2019-03-15T05:45:12.222Z,19.77
2019-03-15T05:47:42.434Z,21.35
2019-03-15T05:50:11.066Z,17.77
2019-03-15T05:52:40.051Z,15.93
2019-03-15T05:55:10.091Z,26.40
2019-03-15T05:57:43.269Z,14.10
2019-03-15T06:00:12.726Z,21.95
2019-03-15T06:02:41.694Z,20.77
2019-03-15T06:05:10.742Z,17.45
2019-03-15T06:07:40.010Z,18.32
2019-03-15T06:10:09.390Z,20.72
2019-03-15T06:12:38.053Z,19.48
2019-03-15T06:15:08.869Z,20.48
2019-03-15T06:17:40.660Z,18.00
2019-03-15T06:20:09.361Z,16.57
2019-03-15T06:22:37.910Z,21.27
2019-03-15T06:25:06.494Z,14.55
2019-03-15T06:27:37.111Z,16.48
2019-03-15T06:30:05.896Z,17.77
2019-03-15T06:32:36.552Z,18.17
2019-03-15T06:35:08.734Z,19.35
2019-03-15T06:37:40.314Z,16.10
2019-03-15T06:40:13.655Z,21.62
2019-03-15T06:42:41.523Z,19.20
2019-03-15T06:45:14.908Z,16.35
2019-03-15T06:47:43.979Z,16.20
2019-03-15T06:50:14.548Z,17.98
2019-03-15T06:52:45.243Z,17.00
2019-03-15T06:55:13.825Z,20.45
2019-03-15T06:57:45.677Z,23.70
2019-03-15T07:00:14.257Z,22.15
2019-03-15T07:02:45.917Z,22.67
2019-03-15T07:05:14.930Z,15.48
2019-03-15T07:07:45.525Z,19.90
2019-03-15T07:10:14.667Z,19.82
2019-03-15T07:12:50.303Z,19.02
2019-03-15T07:15:20.781Z,15.25
2019-03-15T07:17:49.531Z,15.93
2019-03-15T07:20:18.298Z,16.77
2019-03-15T07:22:49.087Z,24.35
2019-03-15T07:25:17.695Z,16.00
2019-03-15T07:27:46.380Z,20.72
2019-03-15T07:30:14.982Z,19.37
2019-03-15T07:32:45.454Z,21.80
2019-03-15T07:35:14.404Z,16.57
2019-03-15T07:37:45.460Z,20.60
2019-03-15T07:40:15.311Z,17.35
2019-03-15T07:42:46.131Z,15.70
2019-03-15T07:45:16.073Z,25.20
2019-03-15T07:47:44.663Z,21.12
2019-03-15T07:50:14.990Z,26.82
2019-03-15T07:52:45.820Z,30.40
2019-03-15T07:55:16.386Z,28.77
2019-03-15T07:57:44.970Z,20.52
2019-03-15T08:00:13.907Z,23.52
2019-03-15T08:02:42.668Z,24.72
2019-03-15T08:05:12.710Z,21.90
2019-03-15T08:07:45.302Z,28.32
2019-03-15T08:10:14.401Z,19.10
2019-03-15T08:12:45.109Z,24.65
2019-03-15T08:15:17.791Z,26.20
2019-03-15T08:17:47.976Z,19.27
2019-03-15T08:20:16.992Z,25.45
2019-03-15T08:22:50.111Z,25.70
2019-03-15T08:25:19.655Z,21.52
2019-03-15T08:27:48.377Z,20.12
2019-03-15T08:30:18.859Z,21.52
2019-03-15T08:32:47.940Z,26.50
2019-03-15T08:35:17.134Z,29.48
2019-03-15T08:37:47.077Z,29.07
2019-03-15T08:40:15.649Z,24.35
2019-03-15T08:42:46.264Z,23.12
2019-03-15T08:45:15.047Z,27.32
2019-03-15T08:47:50.020Z,22.05
2019-03-15T08:50:19.990Z,20.60
2019-03-15T08:52:49.298Z,23.15
2019-03-15T08:55:18.509Z,23.92
2019-03-15T08:57:48.642Z,19.52
2019-03-15T09:00:17.488Z,26.25
2019-03-15T09:02:48.112Z,32.20
2019-03-15T09:05:18.549Z,25.60
2019-03-15T09:07:47.178Z,22.50
2019-03-15T09:10:23.345Z,19.77
2019-03-15T09:12:49.273Z,17.62
2019-03-15T09:15:18.217Z,25.90
2019-03-15T09:17:51.524Z,25.82
2019-03-15T09:20:20.716Z,24.10
2019-03-15T09:22:51.962Z,27.20
2019-03-15T09:25:21.236Z,20.25
2019-03-15T09:27:52.193Z,19.12
2019-03-15T09:30:24.555Z,28.47
2019-03-15T09:32:51.056Z,21.07
2019-03-15T09:35:20.352Z,18.40
2019-03-15T09:37:54.027Z,19.80
2019-03-15T09:42:53.001Z,18.12
2019-03-15T09:45:25.901Z,14.50
2019-03-15T09:47:54.467Z,17.48
2019-03-15T09:50:33.701Z,17.62
2019-03-15T09:52:54.458Z,14.98
2019-03-15T09:55:32.723Z,14.00
2019-03-15T09:57:57.179Z,14.50
2019-03-15T10:00:27.298Z,17.12
2019-03-15T10:02:56.500Z,16.27
2019-03-15T10:05:25.090Z,13.85
2019-03-15T10:07:56.003Z,15.53
2019-03-15T10:10:24.576Z,12.75
2019-03-15T10:13:05.383Z,15.32
2019-03-15T10:15:26.487Z,8.55
2019-03-15T10:17:55.554Z,10.88
2019-03-15T10:20:25.801Z,12.03
2019-03-15T10:23:05.471Z,10.85
2019-03-15T10:25:24.913Z,10.40
2019-03-15T10:27:53.987Z,11.50
2019-03-15T10:30:22.782Z,13.10
2019-03-15T10:32:52.897Z,16.50
2019-03-15T10:35:23.044Z,13.55
2019-03-15T10:37:55.627Z,17.30
2019-03-15T10:40:25.618Z,14.38
2019-03-15T10:42:55.745Z,12.28
2019-03-15T10:45:25.102Z,16.00
2019-03-15T10:47:54.415Z,13.72
2019-03-15T10:50:24.550Z,14.87
2019-03-15T10:52:54.568Z,12.15
2019-03-15T10:55:23.714Z,11.73
2019-03-15T10:57:53.076Z,10.78
2019-03-15T11:00:21.898Z,14.47
2019-03-15T11:02:50.515Z,12.45
2019-03-15T11:05:19.479Z,13.58
2019-03-15T11:07:48.510Z,12.60
2019-03-15T11:10:18.746Z,13.85
2019-03-15T11:12:52.291Z,10.10
2019-03-15T11:15:21.240Z,7.65
2019-03-15T11:17:50.170Z,10.88
2019-03-15T11:20:20.811Z,8.80
2019-03-15T11:22:51.349Z,8.03
2019-03-15T11:25:20.351Z,7.87
2019-03-15T11:27:49.785Z,6.80
2019-03-15T11:30:20.432Z,7.20
2019-03-15T11:32:49.962Z,6.47
2019-03-15T11:35:21.025Z,6.67
2019-03-15T11:37:53.493Z,5.95
2019-03-15T11:40:23.746Z,5.53
2019-03-15T11:42:52.319Z,4.35
2019-03-15T11:45:24.156Z,6.85
2019-03-15T11:48:03.134Z,5.60
2019-03-15T11:50:23.402Z,5.58
2019-03-15T11:52:52.623Z,5.53
2019-03-15T11:55:22.854Z,4.08
2019-03-15T11:57:51.856Z,5.20
2019-03-15T12:00:25.427Z,3.52
2019-03-15T12:02:53.978Z,3.05
2019-03-15T12:05:22.533Z,3.20
2019-03-15T12:07:52.562Z,3.83
2019-03-15T12:10:21.087Z,3.02
2019-03-15T12:12:51.653Z,2.83
2019-03-15T12:15:20.281Z,2.87
2019-03-15T12:17:49.084Z,3.08
2019-03-15T12:20:17.606Z,4.03
2019-03-15T12:22:46.153Z,3.72
2019-03-15T12:25:14.689Z,2.42
2019-03-15T12:27:43.258Z,2.17
2019-03-15T12:30:11.849Z,2.75
2019-03-15T12:32:40.614Z,2.05
2019-03-15T12:35:10.277Z,2.15
2019-03-15T12:37:38.860Z,2.35
2019-03-15T12:40:08.470Z,3.58
2019-03-15T12:42:39.008Z,4.67
2019-03-15T12:45:08.100Z,4.53
2019-03-15T12:47:37.073Z,3.25
2019-03-15T12:50:09.124Z,3.25
2019-03-15T12:52:47.031Z,5.58
2019-03-15T12:55:09.785Z,3.75
2019-03-15T12:57:38.753Z,4.58
2019-03-15T13:00:09.438Z,4.83
2019-03-15T13:02:38.575Z,7.85
2019-03-15T13:05:07.794Z,8.70
2019-03-15T13:07:36.691Z,5.53
2019-03-15T13:10:10.014Z,9.98
2019-03-15T13:12:37.423Z,9.55
2019-03-15T13:15:09.220Z,6.97
2019-03-15T13:17:39.858Z,7.87
2019-03-15T13:20:09.395Z,5.72
2019-03-15T13:22:37.942Z,8.98
2019-03-15T13:25:12.342Z,7.00
2019-03-15T13:27:40.937Z,6.97
2019-03-15T13:30:11.260Z,8.55
2019-03-15T13:32:45.177Z,9.80
2019-03-15T13:35:14.073Z,7.62
2019-03-15T13:37:43.441Z,7.55
2019-03-15T13:40:13.887Z,7.20
2019-03-15T13:42:44.116Z,9.33
2019-03-15T13:45:14.933Z,6.45
2019-03-15T13:47:43.915Z,8.05
2019-03-15T13:50:12.779Z,5.47
2019-03-15T13:52:41.730Z,9.58
2019-03-15T13:55:15.428Z,8.68
2019-03-15T14:00:12.667Z,5.12
2019-03-15T14:02:42.999Z,8.90
2019-03-15T14:05:11.567Z,8.65
2019-03-15T14:07:40.462Z,10.93
2019-03-15T14:10:09.840Z,6.33
2019-03-15T14:12:38.576Z,7.60
2019-03-15T14:15:10.179Z,6.78
2019-03-15T14:17:38.731Z,4.53
2019-03-15T14:20:08.307Z,3.47
2019-03-15T14:22:46.168Z,6.67
2019-03-15T14:25:15.060Z,5.10
2019-03-15T14:27:43.810Z,4.62
2019-03-15T14:30:13.484Z,4.70
2019-03-15T14:32:42.983Z,4.65
2019-03-15T14:35:12.021Z,6.10
2019-03-15T14:37:43.523Z,4.85
2019-03-15T14:40:15.552Z,6.12
2019-03-15T14:42:44.470Z,3.37
2019-03-15T14:45:16.471Z,6.70
2019-03-15T14:47:45.888Z,5.65
2019-03-15T14:50:14.890Z,6.97
2019-03-15T14:52:44.838Z,6.87
2019-03-15T14:55:15.355Z,2.20
2019-03-15T14:57:52.394Z,4.55
2019-03-15T15:00:18.556Z,3.90
2019-03-15T15:02:48.762Z,3.58
2019-03-15T15:05:17.771Z,3.02
2019-03-15T15:07:51.106Z,2.25
2019-03-15T15:10:19.694Z,4.42
2019-03-15T15:12:50.291Z,4.20
2019-03-15T15:15:21.015Z,2.92
2019-03-15T15:17:50.385Z,2.00
2019-03-15T15:20:20.031Z,5.03
2019-03-15T15:22:49.010Z,1.67
2019-03-15T15:25:17.591Z,2.90
2019-03-15T15:27:46.183Z,5.50
2019-03-15T15:30:15.109Z,3.87
2019-03-15T15:32:43.661Z,4.37
2019-03-15T15:35:12.442Z,5.10
2019-03-15T15:37:48.021Z,4.33
2019-03-15T15:40:20.095Z,3.58
2019-03-15T15:42:50.681Z,5.15
2019-03-15T15:45:19.309Z,2.25
2019-03-15T15:47:49.890Z,7.47
2019-03-15T15:50:23.616Z,3.85
2019-03-15T15:52:52.178Z,6.75
2019-03-15T15:55:24.163Z,3.77
2019-03-15T15:57:54.943Z,5.03
2019-03-15T16:00:23.480Z,7.60
2019-03-15T16:03:00.079Z,5.25
2019-03-15T16:05:28.689Z,6.62
2019-03-15T16:07:58.721Z,5.40
2019-03-15T16:10:27.657Z,5.22
2019-03-15T16:12:56.536Z,5.50
2019-03-15T16:15:26.985Z,8.88
2019-03-15T16:17:55.569Z,5.22
2019-03-15T16:20:25.502Z,6.67
2019-03-15T16:22:55.633Z,5.10
2019-03-15T16:25:24.395Z,8.50
2019-03-15T16:27:59.332Z,7.45
2019-03-15T16:30:31.567Z,12.00
2019-03-15T16:33:01.537Z,6.95
2019-03-15T16:35:30.515Z,4.42
2019-03-15T16:37:59.319Z,6.70
2019-03-15T16:40:27.910Z,7.75
2019-03-15T16:42:56.958Z,9.58
2019-03-15T16:45:26.009Z,10.58
2019-03-15T16:47:56.736Z,11.80
2019-03-15T16:50:26.971Z,9.28
2019-03-15T16:52:56.005Z,9.43
2019-03-15T16:55:28.380Z,10.65
2019-03-15T16:58:00.898Z,5.58
2019-03-15T17:00:31.046Z,10.15
2019-03-15T17:03:01.690Z,7.33
2019-03-15T17:05:30.430Z,7.70
2019-03-15T17:08:04.570Z,8.25
2019-03-15T17:10:36.535Z,9.73
2019-03-15T17:13:09.519Z,13.90
2019-03-15T17:15:40.093Z,13.75
2019-03-15T17:18:08.698Z,10.53
2019-03-15T17:20:39.600Z,13.88
2019-03-15T17:23:11.589Z,6.58
2019-03-15T17:26:03.155Z,6.83
2019-03-15T17:28:33.072Z,7.70
2019-03-15T17:31:09.801Z,11.10
2019-03-15T17:33:32.379Z,12.70
2019-03-15T17:36:03.269Z,13.80
2019-03-15T17:38:33.820Z,6.10
2019-03-15T17:41:02.396Z,7.33
2019-03-15T17:43:30.980Z,11.48
2019-03-15T17:46:00.283Z,16.05
2019-03-15T17:48:29.204Z,12.85
2019-03-15T17:50:57.758Z,7.95
2019-03-15T17:53:26.369Z,8.53
2019-03-15T17:55:57.539Z,6.80
2019-03-15T17:58:27.804Z,7.45
2019-03-15T18:00:58.377Z,7.58
2019-03-15T18:03:27.251Z,25.40
2019-03-15T18:05:58.894Z,10.95
2019-03-15T18:08:27.475Z,8.25
2019-03-15T18:10:57.893Z,9.40
2019-03-15T18:13:26.655Z,7.62
2019-03-15T18:15:57.090Z,7.35
2019-03-15T18:18:26.057Z,8.95
2019-03-15T18:20:54.629Z,8.68
2019-03-15T18:23:23.202Z,8.98
2019-03-15T18:25:51.994Z,7.95
2019-03-15T18:28:22.720Z,8.00
2019-03-15T18:30:51.665Z,7.03
2019-03-15T18:33:20.440Z,7.28
2019-03-15T18:35:49.156Z,11.75
2019-03-15T18:38:17.719Z,13.35
2019-03-15T18:40:46.263Z,7.62
2019-03-15T18:43:15.511Z,9.00
2019-03-15T18:45:44.269Z,12.35
2019-03-15T18:48:13.230Z,7.00
2019-03-15T18:50:42.180Z,8.35
2019-03-15T18:53:10.930Z,6.90
2019-03-15T18:55:39.647Z,6.50
2019-03-15T18:58:09.971Z,7.75
2019-03-15T19:00:38.716Z,8.08
2019-03-15T19:03:07.283Z,11.50
2019-03-15T19:05:35.820Z,7.30
2019-03-15T19:08:06.854Z,7.87
2019-03-15T19:10:38.858Z,7.80
2019-03-15T19:13:08.044Z,12.10
2019-03-15T19:15:36.941Z,8.60
2019-03-15T19:18:05.845Z,10.60
2019-03-15T19:20:34.738Z,5.95
2019-03-15T19:23:04.948Z,9.40
2019-03-15T19:25:34.066Z,8.03
2019-03-15T19:28:04.414Z,7.30
2019-03-15T19:30:34.682Z,11.30
2019-03-15T19:33:03.777Z,6.83
2019-03-15T19:35:34.348Z,10.20
2019-03-15T19:38:02.900Z,7.30
2019-03-15T19:40:31.833Z,9.00
2019-03-15T19:43:01.796Z,8.00
2019-03-15T19:45:30.972Z,8.80
2019-03-15T19:47:59.716Z,3.47
2019-03-15T19:50:28.442Z,4.28
2019-03-15T19:52:57.051Z,7.47
2019-03-15T19:55:25.589Z,4.05
2019-03-15T19:57:55.518Z,9.13
2019-03-15T20:00:26.250Z,10.58
2019-03-15T20:02:56.193Z,12.33
2019-03-15T20:05:26.308Z,9.08
2019-03-15T20:07:56.566Z,9.73
2019-03-15T20:10:25.477Z,8.55
2019-03-15T20:12:54.394Z,8.55
2019-03-15T20:15:22.933Z,7.78
2019-03-15T20:17:54.935Z,4.72
2019-03-15T20:20:25.382Z,5.15
2019-03-15T20:22:53.989Z,7.62
2019-03-15T20:25:22.812Z,5.08
2019-03-15T20:27:51.564Z,5.40
2019-03-15T20:30:23.076Z,5.60
2019-03-15T20:32:52.175Z,8.88
2019-03-15T20:35:21.037Z,8.73
2019-03-15T20:37:49.773Z,8.40
2019-03-15T20:40:19.754Z,13.78
2019-03-15T20:42:50.325Z,6.90
2019-03-15T20:45:18.925Z,6.35
2019-03-15T20:47:48.839Z,7.60
2019-03-15T20:50:18.965Z,9.53
2019-03-15T20:52:47.525Z,9.13
2019-03-15T20:55:16.135Z,6.10
2019-03-15T20:57:46.706Z,17.15
2019-03-15T21:00:15.652Z,8.30
2019-03-15T21:02:44.214Z,9.13
2019-03-15T21:05:13.203Z,8.35
2019-03-15T21:07:43.783Z,6.00
2019-03-15T21:10:12.998Z,13.93
2019-03-15T21:12:43.170Z,10.88
2019-03-15T21:15:14.687Z,10.10
2019-03-15T21:17:43.603Z,10.43
2019-03-15T21:20:12.531Z,12.85
2019-03-15T21:22:43.670Z,8.45
2019-03-15T21:25:15.742Z,16.67
2019-03-15T21:27:53.602Z,7.35
2019-03-15T21:30:16.207Z,17.50
2019-03-15T21:32:44.947Z,13.10
2019-03-15T21:35:13.573Z,13.98
2019-03-15T21:37:42.157Z,9.48
2019-03-15T21:40:13.009Z,9.93
2019-03-15T21:42:42.091Z,8.43
2019-03-15T21:45:12.885Z,16.80
2019-03-15T21:47:41.416Z,8.50
2019-03-15T21:50:11.399Z,8.60
2019-03-15T21:52:40.321Z,8.63
2019-03-15T21:55:11.919Z,8.70
2019-03-15T21:57:40.473Z,12.82
2019-03-15T22:00:12.313Z,8.55
2019-03-15T22:02:41.170Z,9.38
2019-03-15T22:05:09.912Z,11.18
2019-03-15T22:07:39.122Z,13.88
2019-03-15T22:10:08.387Z,11.22
2019-03-15T22:12:37.328Z,11.22
2019-03-15T22:15:07.464Z,10.98
2019-03-15T22:17:40.008Z,11.73
2019-03-15T22:20:09.268Z,10.75
2019-03-15T22:22:38.299Z,10.95
2019-03-15T22:25:09.253Z,14.38
2019-03-15T22:27:39.580Z,7.72
2019-03-15T22:30:08.742Z,9.83
2019-03-15T22:32:37.491Z,20.10
2019-03-15T22:35:08.369Z,10.30
2019-03-15T22:37:37.241Z,12.28
2019-03-15T22:40:05.854Z,13.70
2019-03-15T22:42:34.405Z,12.90
2019-03-15T22:45:06.516Z,15.68
2019-03-15T22:47:35.266Z,14.75
2019-03-15T22:50:03.910Z,11.45
2019-03-15T22:52:37.146Z,10.32
2019-03-15T22:55:07.406Z,8.85
2019-03-15T22:57:39.469Z,9.90
2019-03-15T23:00:10.458Z,11.25
2019-03-15T23:02:39.059Z,14.93
2019-03-15T23:05:07.621Z,11.00
2019-03-15T23:07:36.634Z,8.63
2019-03-15T23:10:05.746Z,13.83
2019-03-15T23:12:35.999Z,13.93
2019-03-15T23:15:07.018Z,10.13
2019-03-15T23:17:35.933Z,6.05
2019-03-15T23:20:04.656Z,12.30
2019-03-15T23:22:33.571Z,12.05
2019-03-15T23:25:04.472Z,12.47
2019-03-15T23:27:33.032Z,12.13
2019-03-15T23:30:01.764Z,10.53
2019-03-15T23:32:30.686Z,10.63
2019-03-15T23:34:59.255Z,8.48
2019-03-15T23:37:27.919Z,12.55
2019-03-15T23:39:56.474Z,9.58
2019-03-15T23:42:25.385Z,10.20
2019-03-15T23:44:55.865Z,7.62
2019-03-15T23:47:24.494Z,10.13
2019-03-15T23:49:54.568Z,11.50
2019-03-15T23:52:23.488Z,10.25
2019-03-15T23:54:52.462Z,13.85
2019-03-15T23:57:22.744Z,13.90
2019-03-15T23:59:53.047Z,11.57
